Time;durP1;ratioP1;P1;durP2;ratioP2;P2;SDS_P1;SDS_P2;PMS_P1;PMS_P2;Temp;Humidity;BMP_temperature;BMP_pressure;BME280_temperature;BME280_humidity;BME280_pressure;Samples;Min_cycle;Max_cycle;Signal;HPM_P1;HPM_P2
2021/05/09 00:00:09;;;;;;;12.88;6.57;;;12.10;99.90;;;;;;5115222;28;20073;-58
2021/05/09 00:02:36;;;;;;;10.15;7.60;;;12.00;99.90;;;;;;5115260;28;20166;-58
2021/05/09 00:05:04;;;;;;;8.55;6.15;;;12.00;99.90;;;;;;5115219;28;20077;-58
2021/05/09 00:07:31;;;;;;;10.15;6.95;;;12.00;99.90;;;;;;5115026;28;20489;-58
2021/05/09 00:09:58;;;;;;;10.57;7.25;;;12.00;99.90;;;;;;5115105;28;20043;-58
2021/05/09 00:12:23;;;;;;;13.02;7.43;;;12.00;99.90;;;;;;5114986;28;20035;-58
2021/05/09 00:14:49;;;;;;;11.30;6.78;;;11.90;99.90;;;;;;5114983;28;20126;-58
2021/05/09 00:17:15;;;;;;;15.60;7.00;;;11.90;99.90;;;;;;5114731;28;20036;-58
2021/05/09 00:19:40;;;;;;;10.73;6.82;;;11.90;99.90;;;;;;5096056;28;20071;-58
2021/05/09 00:22:06;;;;;;;8.05;7.25;;;11.90;99.90;;;;;;5114624;28;20047;-58
2021/05/09 00:24:32;;;;;;;8.43;7.05;;;11.80;99.90;;;;;;5114479;28;20047;-58
2021/05/09 00:27:18;;;;;;;9.80;6.68;;;11.80;99.90;;;;;;5099499;28;20052;-58
2021/05/09 00:29:43;;;;;;;13.05;7.70;;;11.80;99.90;;;;;;5114449;28;20047;-58
2021/05/09 00:32:10;;;;;;;10.13;7.88;;;11.80;99.90;;;;;;5114432;28;20062;-58
2021/05/09 00:34:35;;;;;;;13.73;7.43;;;11.80;99.90;;;;;;5114367;28;20047;-58
2021/05/09 00:37:01;;;;;;;11.63;7.60;;;11.80;99.90;;;;;;5114626;28;20040;-58
2021/05/09 00:39:31;;;;;;;13.00;8.00;;;11.80;99.90;;;;;;5114176;28;20043;-58
2021/05/09 00:42:05;;;;;;;8.68;7.70;;;11.70;99.90;;;;;;5114470;28;20470;-58
2021/05/09 00:44:31;;;;;;;9.23;7.53;;;11.70;99.90;;;;;;5114408;28;20090;-58
2021/05/09 00:46:58;;;;;;;9.88;7.45;;;11.70;99.90;;;;;;5114104;28;20469;-58
2021/05/09 00:49:24;;;;;;;10.25;6.85;;;11.70;99.90;;;;;;5114151;28;20063;-58
2021/05/09 00:51:50;;;;;;;12.20;8.07;;;11.70;99.90;;;;;;5113875;28;20082;-58
2021/05/09 00:54:19;;;;;;;11.63;7.35;;;11.70;99.90;;;;;;5113992;28;20363;-58
2021/05/09 00:56:46;;;;;;;10.95;6.95;;;11.70;99.90;;;;;;5113962;28;20416;-58
2021/05/09 00:59:13;;;;;;;7.97;6.88;;;11.70;99.90;;;;;;5114017;28;20043;-58
2021/05/09 01:01:41;;;;;;;11.00;7.15;;;11.60;99.90;;;;;;5113697;28;20043;-58
2021/05/09 01:04:13;;;;;;;12.68;7.90;;;11.60;99.90;;;;;;5114005;28;20040;-58
2021/05/09 01:06:40;;;;;;;10.20;7.38;;;11.60;99.90;;;;;;5113920;28;20621;-58
2021/05/09 01:09:09;;;;;;;12.45;7.80;;;11.60;99.90;;;;;;5113822;28;20061;-58
2021/05/09 01:11:36;;;;;;;9.45;6.80;;;11.60;99.90;;;;;;5113936;28;20545;-58
2021/05/09 01:14:03;;;;;;;8.13;7.32;;;11.60;99.90;;;;;;5113587;28;20405;-58
2021/05/09 01:16:29;;;;;;;19.55;7.85;;;11.50;99.90;;;;;;5113566;28;20050;-58
2021/05/09 01:19:01;;;;;;;14.30;7.95;;;11.50;99.90;;;;;;5113538;28;20071;-58
2021/05/09 01:21:27;;;;;;;13.27;7.15;;;11.50;99.90;;;;;;5113514;28;20067;-58
2021/05/09 01:23:53;;;;;;;9.70;7.63;;;11.40;99.90;;;;;;5113643;28;20040;-58
2021/05/09 01:26:18;;;;;;;9.20;7.10;;;11.40;99.90;;;;;;5113487;28;20043;-58
2021/05/09 01:28:45;;;;;;;11.82;7.97;;;11.40;99.90;;;;;;5113453;28;20039;-58
2021/05/09 01:31:12;;;;;;;11.82;7.68;;;11.40;99.90;;;;;;5113542;28;20040;-58
2021/05/09 01:33:40;;;;;;;9.90;7.40;;;11.30;99.90;;;;;;5113267;28;20101;-58
2021/05/09 01:36:05;;;;;;;9.18;7.25;;;11.30;99.90;;;;;;5113123;28;20301;-58
2021/05/09 01:38:31;;;;;;;8.48;7.30;;;11.40;99.90;;;;;;5113143;28;20117;-58
2021/05/09 01:40:57;;;;;;;8.65;6.68;;;11.40;99.90;;;;;;5113613;28;20093;-57
2021/05/09 01:43:23;;;;;;;11.10;7.13;;;11.50;99.90;;;;;;5113236;28;20043;-57
2021/05/09 01:45:49;;;;;;;10.68;7.35;;;11.30;99.90;;;;;;5112743;28;20097;-58
2021/05/09 01:48:14;;;;;;;11.75;7.32;;;11.30;99.90;;;;;;5112937;28;20043;-58
2021/05/09 01:50:40;;;;;;;12.05;6.85;;;11.30;99.90;;;;;;5112943;28;20534;-58
2021/05/09 01:53:06;;;;;;;8.80;7.32;;;11.30;99.90;;;;;;5113056;28;20410;-58
2021/05/09 01:55:32;;;;;;;12.57;8.13;;;11.20;99.90;;;;;;5112901;28;20070;-58
2021/05/09 01:57:59;;;;;;;9.63;7.95;;;11.20;99.90;;;;;;5113217;28;20039;-58
2021/05/09 02:00:25;;;;;;;9.45;6.90;;;11.20;99.90;;;;;;5112736;28;20044;-58
2021/05/09 02:02:51;;;;;;;7.97;6.78;;;11.20;99.90;;;;;;5112638;28;20408;-58
2021/05/09 02:05:17;;;;;;;14.15;7.75;;;11.20;99.90;;;;;;5112866;28;20055;-58
2021/05/09 02:08:03;;;;;;;18.85;7.93;;;11.20;99.90;;;;;;5097732;28;20048;-58
2021/05/09 02:10:29;;;;;;;10.63;6.88;;;11.20;99.90;;;;;;5113040;28;20047;-58
2021/05/09 02:12:56;;;;;;;11.40;7.25;;;11.20;99.90;;;;;;5111946;28;20083;-58
2021/05/09 02:15:22;;;;;;;11.55;7.20;;;11.20;99.90;;;;;;5112589;28;20071;-58
2021/05/09 02:17:48;;;;;;;22.05;7.32;;;11.20;99.90;;;;;;5112612;28;20084;-58
2021/05/09 02:20:14;;;;;;;10.63;7.55;;;11.20;99.90;;;;;;5112559;28;20046;-58
2021/05/09 02:22:40;;;;;;;10.25;7.38;;;11.20;99.90;;;;;;5112587;28;20406;-58
2021/05/09 02:25:07;;;;;;;10.55;7.40;;;11.20;99.90;;;;;;5112641;28;20049;-58
2021/05/09 02:27:33;;;;;;;13.27;6.90;;;11.10;99.90;;;;;;5112444;28;20039;-58
2021/05/09 02:29:59;;;;;;;11.90;7.15;;;11.10;99.90;;;;;;5112349;28;20101;-58
2021/05/09 02:32:25;;;;;;;10.20;6.47;;;11.20;99.90;;;;;;5112682;28;20048;-58
2021/05/09 02:34:51;;;;;;;11.50;6.45;;;11.10;99.90;;;;;;5112900;28;20056;-57
2021/05/09 02:37:17;;;;;;;12.93;7.65;;;11.10;99.90;;;;;;5112663;28;20054;-58
2021/05/09 02:39:45;;;;;;;8.88;7.32;;;11.20;99.90;;;;;;5112112;28;20485;-58
2021/05/09 02:42:11;;;;;;;14.48;7.22;;;11.20;99.90;;;;;;5112156;28;20074;-58
2021/05/09 02:44:39;;;;;;;8.80;6.95;;;11.20;99.90;;;;;;5112569;28;20043;-59
2021/05/09 02:47:04;;;;;;;11.10;6.60;;;11.20;99.90;;;;;;5112206;28;20101;-58
2021/05/09 02:49:30;;;;;;;7.50;6.55;;;11.20;99.90;;;;;;5111909;28;20507;-58
2021/05/09 02:51:56;;;;;;;11.07;7.32;;;11.20;99.90;;;;;;5112219;28;20056;-58
2021/05/09 02:54:22;;;;;;;7.85;6.70;;;11.10;99.90;;;;;;5112151;28;20503;-58
2021/05/09 02:56:47;;;;;;;12.98;6.85;;;11.20;99.90;;;;;;5112146;28;20043;-58
2021/05/09 02:59:13;;;;;;;9.70;6.65;;;11.20;99.90;;;;;;5112170;28;20118;-58
2021/05/09 03:01:39;;;;;;;9.70;6.95;;;11.20;99.90;;;;;;5112068;28;20042;-58
2021/05/09 03:04:05;;;;;;;10.00;7.10;;;11.20;99.90;;;;;;5112077;28;20067;-59
2021/05/09 03:06:30;;;;;;;11.55;7.28;;;11.20;99.90;;;;;;5112214;28;20457;-58
2021/05/09 03:08:56;;;;;;;12.32;7.30;;;11.20;99.90;;;;;;5111961;28;20130;-58
2021/05/09 03:11:26;;;;;;;9.98;6.65;;;11.20;99.90;;;;;;5112150;28;20481;-58
2021/05/09 03:13:52;;;;;;;10.10;7.65;;;11.20;99.90;;;;;;5112117;28;20393;-58
2021/05/09 03:16:18;;;;;;;9.73;6.55;;;11.20;99.90;;;;;;5111998;28;20127;-58
2021/05/09 03:18:43;;;;;;;13.77;6.72;;;11.20;99.90;;;;;;5112164;28;20594;-58
2021/05/09 03:21:09;;;;;;;7.85;6.45;;;11.20;99.90;;;;;;5112332;28;20405;-58
2021/05/09 03:23:35;;;;;;;9.07;6.55;;;11.20;99.90;;;;;;5112215;28;20401;-59
2021/05/09 03:26:00;;;;;;;13.65;8.20;;;11.20;99.90;;;;;;5115406;28;20058;-58
2021/05/09 03:28:26;;;;;;;9.13;6.53;;;11.10;99.90;;;;;;5115879;28;20031;-58
2021/05/09 03:30:52;;;;;;;10.70;7.53;;;11.10;99.90;;;;;;5116055;28;20043;-58
2021/05/09 03:33:17;;;;;;;12.23;7.20;;;11.10;99.90;;;;;;5116022;28;20624;-58
2021/05/09 03:35:44;;;;;;;10.90;7.20;;;11.10;99.90;;;;;;5115627;28;20048;-58
2021/05/09 03:38:09;;;;;;;13.30;6.65;;;11.10;99.90;;;;;;5115575;28;20051;-59
2021/05/09 03:40:35;;;;;;;9.32;6.35;;;11.10;99.90;;;;;;5115354;28;20043;-58
2021/05/09 03:43:01;;;;;;;11.90;6.68;;;11.10;99.90;;;;;;5115372;28;20471;-58
2021/05/09 03:45:26;;;;;;;9.18;7.05;;;11.20;99.90;;;;;;5115589;28;20071;-58
2021/05/09 03:47:52;;;;;;;11.50;7.05;;;11.20;99.90;;;;;;5115630;28;20051;-58
2021/05/09 03:50:19;;;;;;;10.23;7.07;;;11.20;99.90;;;;;;5115411;28;20084;-58
2021/05/09 03:52:45;;;;;;;11.82;7.18;;;11.20;99.90;;;;;;5115050;28;20504;-58
2021/05/09 03:55:11;;;;;;;11.25;6.95;;;11.20;99.90;;;;;;5115294;28;20051;-58
2021/05/09 03:57:39;;;;;;;11.80;7.53;;;11.20;99.90;;;;;;5115289;28;20075;-58
2021/05/09 04:00:06;;;;;;;13.13;6.82;;;11.10;99.90;;;;;;5115230;28;20044;-58
2021/05/09 04:02:34;;;;;;;11.60;6.93;;;11.10;99.90;;;;;;5115120;28;20043;-58
2021/05/09 04:05:00;;;;;;;10.10;6.70;;;11.10;99.90;;;;;;5115130;28;20384;-58
2021/05/09 04:07:26;;;;;;;12.00;7.15;;;11.10;99.90;;;;;;5115395;28;20126;-58
2021/05/09 04:09:52;;;;;;;12.30;6.40;;;11.10;99.90;;;;;;5114768;28;20534;-58
2021/05/09 04:12:17;;;;;;;11.27;7.13;;;11.10;99.90;;;;;;5115214;28;20067;-58
2021/05/09 04:14:43;;;;;;;9.55;6.75;;;11.10;99.90;;;;;;5115136;28;20063;-58
2021/05/09 04:17:09;;;;;;;9.80;6.57;;;11.10;99.90;;;;;;5115047;28;20088;-58
2021/05/09 04:19:35;;;;;;;11.70;6.25;;;11.00;99.90;;;;;;5114654;28;20040;-58
2021/05/09 04:22:02;;;;;;;8.50;6.05;;;11.00;99.90;;;;;;5114610;28;20043;-58
2021/05/09 04:24:35;;;;;;;9.48;6.15;;;11.10;99.90;;;;;;5114792;28;20047;-59
2021/05/09 04:27:02;;;;;;;10.27;6.47;;;11.10;99.90;;;;;;5114804;28;20043;-58
2021/05/09 04:29:28;;;;;;;10.15;6.32;;;11.20;99.90;;;;;;5114473;28;20036;-58
2021/05/09 04:31:53;;;;;;;10.52;6.13;;;11.20;99.90;;;;;;5114680;28;20413;-59
2021/05/09 04:34:19;;;;;;;7.70;6.00;;;11.30;99.90;;;;;;5114535;28;20119;-58
2021/05/09 04:36:46;;;;;;;8.40;5.75;;;11.30;99.90;;;;;;5113453;28;20052;-58
2021/05/09 04:39:12;;;;;;;10.25;6.10;;;11.30;99.90;;;;;;5114549;28;20397;-58
2021/05/09 04:41:37;;;;;;;11.02;6.50;;;11.40;99.90;;;;;;5114571;28;20046;-58
2021/05/09 04:44:03;;;;;;;12.23;5.80;;;11.50;99.90;;;;;;5114472;28;20043;-58
2021/05/09 04:46:29;;;;;;;8.95;5.85;;;11.50;99.90;;;;;;5114682;28;20044;-58
2021/05/09 04:48:55;;;;;;;8.13;5.85;;;11.60;99.90;;;;;;5114448;28;20032;-58
2021/05/09 04:51:21;;;;;;;9.05;6.53;;;11.60;99.90;;;;;;5114360;28;20170;-58
2021/05/09 04:53:47;;;;;;;9.95;5.80;;;11.70;99.90;;;;;;5114398;28;20463;-58
2021/05/09 04:56:12;;;;;;;9.52;6.70;;;11.70;99.90;;;;;;5114018;28;20036;-57
2021/05/09 04:58:40;;;;;;;9.35;6.15;;;11.70;99.90;;;;;;5114086;28;20062;-58
2021/05/09 05:01:08;;;;;;;8.50;5.90;;;11.80;99.90;;;;;;5114043;28;20059;-58
2021/05/09 05:03:36;;;;;;;11.00;5.68;;;11.80;99.90;;;;;;5114027;28;20042;-58
2021/05/09 05:06:02;;;;;;;10.07;5.63;;;11.90;99.90;;;;;;5114026;28;20071;-58
2021/05/09 05:08:31;;;;;;;10.20;5.68;;;12.00;99.90;;;;;;5114196;28;20054;-58
2021/05/09 05:10:57;;;;;;;7.60;5.55;;;12.00;99.90;;;;;;5114081;28;20051;-58
2021/05/09 05:13:33;;;;;;;8.68;5.88;;;12.10;99.90;;;;;;5114059;28;20188;-58
2021/05/09 05:16:04;;;;;;;8.15;5.10;;;12.10;99.90;;;;;;5094892;28;20398;-58
2021/05/09 05:18:30;;;;;;;9.65;5.30;;;12.20;99.90;;;;;;5113719;28;20044;-58
2021/05/09 05:21:02;;;;;;;6.97;5.25;;;12.30;99.90;;;;;;5113625;28;20039;-58
2021/05/09 05:23:28;;;;;;;9.00;5.68;;;12.30;99.90;;;;;;5113656;28;20481;-58
2021/05/09 05:25:54;;;;;;;9.68;5.50;;;12.40;99.90;;;;;;5113690;28;20101;-58
2021/05/09 05:28:21;;;;;;;11.45;5.72;;;12.50;99.90;;;;;;5113351;28;20138;-58
2021/05/09 05:30:47;;;;;;;8.82;6.05;;;12.60;99.90;;;;;;5113128;28;20039;-58
2021/05/09 05:33:43;;;;;;;6.75;5.20;;;12.70;99.90;;;;;;5113376;28;20039;-58
2021/05/09 05:36:09;;;;;;;7.78;5.25;;;12.80;99.90;;;;;;5011054;28;20116;-58
2021/05/09 05:38:35;;;;;;;9.27;5.07;;;12.80;99.90;;;;;;5011242;28;20054;-58
2021/05/09 05:41:01;;;;;;;9.63;5.38;;;12.90;99.90;;;;;;5010812;28;20042;-58
2021/05/09 05:43:29;;;;;;;7.28;5.10;;;12.90;99.90;;;;;;5010922;28;20061;-58
2021/05/09 05:45:56;;;;;;;5.93;4.75;;;13.00;99.90;;;;;;5010967;28;20046;-58
2021/05/09 05:48:22;;;;;;;7.65;4.78;;;13.20;99.90;;;;;;5009901;28;20042;-58
2021/05/09 05:50:49;;;;;;;5.97;4.93;;;13.30;99.90;;;;;;5010602;28;20050;-58
2021/05/09 05:53:18;;;;;;;8.52;5.10;;;13.40;99.90;;;;;;5010678;28;20076;-58
2021/05/09 05:55:45;;;;;;;7.47;5.10;;;13.40;99.90;;;;;;5010740;28;20041;-58
2021/05/09 05:58:11;;;;;;;8.43;4.85;;;13.50;99.90;;;;;;5010815;28;20096;-58
2021/05/09 06:00:36;;;;;;;8.57;5.45;;;13.60;99.90;;;;;;5010420;28;20042;-58
2021/05/09 06:03:02;;;;;;;5.97;4.93;;;13.70;99.90;;;;;;5010614;28;20077;-57
2021/05/09 06:05:28;;;;;;;7.47;5.30;;;13.80;99.90;;;;;;5010523;28;20049;-58
2021/05/09 06:07:54;;;;;;;8.65;4.60;;;13.80;99.90;;;;;;5010525;28;20073;-58
2021/05/09 06:10:19;;;;;;;12.05;5.25;;;14.00;99.90;;;;;;5010502;28;20050;-58
2021/05/09 06:12:45;;;;;;;8.80;5.20;;;14.00;99.90;;;;;;5071694;28;20047;-58
2021/05/09 06:15:11;;;;;;;8.95;4.80;;;14.20;99.90;;;;;;5112724;28;20047;-58
2021/05/09 06:17:37;;;;;;;5.47;4.65;;;14.30;99.90;;;;;;5112698;28;20043;-58
2021/05/09 06:20:04;;;;;;;6.18;4.78;;;14.40;99.90;;;;;;5112932;28;20065;-58
2021/05/09 06:22:30;;;;;;;5.63;4.25;;;14.50;99.90;;;;;;5112723;28;20038;-57
2021/05/09 06:24:56;;;;;;;8.93;5.15;;;14.70;99.90;;;;;;5112484;28;20036;-58
2021/05/09 06:27:22;;;;;;;8.95;4.88;;;14.90;99.90;;;;;;5112427;28;20077;-57
2021/05/09 06:29:48;;;;;;;7.25;4.97;;;15.10;99.90;;;;;;5112843;28;20055;-58
2021/05/09 06:32:13;;;;;;;7.85;4.45;;;15.20;99.90;;;;;;5112598;28;20072;-58
2021/05/09 06:34:43;;;;;;;7.32;4.47;;;15.30;99.90;;;;;;5112257;28;20044;-58
2021/05/09 06:37:10;;;;;;;5.82;4.22;;;15.30;99.90;;;;;;5112394;28;20032;-58
2021/05/09 06:39:37;;;;;;;10.60;4.33;;;15.40;99.90;;;;;;5112430;28;20062;-58
2021/05/09 06:42:04;;;;;;;7.05;4.28;;;15.60;99.90;;;;;;5112831;28;20044;-58
2021/05/09 06:44:33;;;;;;;10.68;5.03;;;15.80;99.90;;;;;;5112532;28;20035;-58
2021/05/09 06:47:01;;;;;;;6.10;4.15;;;15.70;99.90;;;;;;5112489;28;20039;-58
2021/05/09 06:49:27;;;;;;;7.70;4.15;;;15.70;99.90;;;;;;5112418;28;20108;-57
2021/05/09 06:51:55;;;;;;;7.10;4.28;;;15.90;99.90;;;;;;5112292;28;20400;-57
2021/05/09 06:54:21;;;;;;;5.82;3.72;;;16.00;99.90;;;;;;5112298;28;20043;-57
2021/05/09 06:56:48;;;;;;;5.65;4.05;;;16.20;99.90;;;;;;5112300;28;20051;-58
2021/05/09 06:59:16;;;;;;;5.55;3.80;;;16.30;99.90;;;;;;5113399;28;20056;-58
2021/05/09 07:01:42;;;;;;;10.85;3.92;;;16.60;99.90;;;;;;5116766;28;20032;-58
2021/05/09 07:04:08;;;;;;;8.45;3.92;;;16.70;99.90;;;;;;5116377;28;20040;-58
2021/05/09 07:06:34;;;;;;;6.90;3.83;;;16.80;99.90;;;;;;5116312;28;20046;-57
2021/05/09 07:09:01;;;;;;;6.25;4.00;;;17.00;99.90;;;;;;5116323;28;20040;-57
2021/05/09 07:11:27;;;;;;;8.07;3.55;;;17.30;99.90;;;;;;5116274;28;20043;-58
2021/05/09 07:13:53;;;;;;;7.28;4.03;;;17.30;99.90;;;;;;5116118;28;20123;-58
2021/05/09 07:16:20;;;;;;;7.88;4.40;;;17.30;99.90;;;;;;5116138;28;20185;-58
2021/05/09 07:18:46;;;;;;;6.30;3.95;;;17.40;99.90;;;;;;5116204;28;20126;-57
2021/05/09 07:21:15;;;;;;;7.00;3.58;;;17.60;99.90;;;;;;5116050;28;20188;-58
2021/05/09 07:23:46;;;;;;;;;;;17.70;99.90;;;;;;5116125;28;20047;-58
2021/05/09 07:26:13;;;;;;;7.15;3.63;;;17.80;99.90;;;;;;5108009;28;19959;-58
2021/05/09 07:28:38;;;;;;;5.78;3.38;;;18.00;99.90;;;;;;5115970;28;20047;-57
2021/05/09 07:31:04;;;;;;;6.22;4.18;;;18.10;99.90;;;;;;5116126;28;20450;-55
2021/05/09 07:33:30;;;;;;;8.13;3.70;;;18.20;99.90;;;;;;5115681;28;20503;-56
2021/05/09 07:35:55;;;;;;;6.93;3.92;;;18.30;99.90;;;;;;5115769;28;20040;-55
2021/05/09 07:38:21;;;;;;;7.20;3.13;;;18.40;99.90;;;;;;5115850;28;20366;-55
2021/05/09 07:40:47;;;;;;;4.72;3.20;;;18.30;99.90;;;;;;5115589;28;20055;-55
2021/05/09 07:43:14;;;;;;;7.30;3.58;;;18.50;99.90;;;;;;5115618;28;20409;-55
2021/05/09 07:45:41;;;;;;;6.05;4.32;;;18.80;99.90;;;;;;5115443;28;20400;-55
2021/05/09 07:48:09;;;;;;;9.10;3.53;;;19.00;99.90;;;;;;5115608;28;20054;-55
2021/05/09 07:50:35;;;;;;;11.20;3.35;;;19.00;99.90;;;;;;5115736;28;20031;-55
2021/05/09 07:53:01;;;;;;;6.78;3.55;;;19.20;99.90;;;;;;5115280;28;20047;-55
2021/05/09 07:55:27;;;;;;;6.53;4.13;;;19.50;99.90;;;;;;5115657;28;20828;-55
2021/05/09 07:57:53;;;;;;;5.05;3.28;;;19.60;99.90;;;;;;5115350;28;20101;-54
2021/05/09 08:00:20;;;;;;;11.02;4.88;;;19.80;99.90;;;;;;5115291;28;20126;-55
2021/05/09 08:02:48;;;;;;;10.25;4.07;;;19.90;99.90;;;;;;5115028;28;20032;-55
2021/05/09 08:05:15;;;;;;;6.40;3.90;;;20.30;99.90;;;;;;5115150;28;20036;-55
2021/05/09 08:07:55;;;;;;;8.45;3.75;;;20.30;99.90;;;;;;5115320;28;20040;-55
2021/05/09 08:10:22;;;;;;;8.02;4.15;;;20.50;99.90;;;;;;5114530;28;20040;-55
2021/05/09 08:12:48;;;;;;;7.05;3.53;;;20.80;99.90;;;;;;5114362;28;20382;-54
2021/05/09 08:15:16;;;;;;;5.90;3.30;;;20.80;99.90;;;;;;5115062;28;20036;-55
2021/05/09 08:17:42;;;;;;;14.20;3.78;;;20.80;99.90;;;;;;5114804;28;20050;-56
2021/05/09 08:20:08;;;;;;;4.97;3.30;;;21.00;99.90;;;;;;5114786;28;20043;-55
2021/05/09 08:22:34;;;;;;;10.90;4.00;;;20.90;99.90;;;;;;5114713;28;20485;-55
2021/05/09 08:25:01;;;;;;;7.85;3.70;;;21.10;99.90;;;;;;5114738;28;20067;-55
2021/05/09 08:27:30;;;;;;;8.55;3.65;;;21.20;99.90;;;;;;5114669;28;20062;-55
2021/05/09 08:29:56;;;;;;;5.18;3.08;;;21.10;99.90;;;;;;5114583;28;20445;-55
2021/05/09 08:32:22;;;;;;;9.48;3.17;;;21.20;99.90;;;;;;5114593;28;20040;-55
2021/05/09 08:34:47;;;;;;;4.68;3.58;;;21.60;99.90;;;;;;5114816;28;20051;-55
2021/05/09 08:37:13;;;;;;;6.97;3.60;;;21.70;99.90;;;;;;5114483;28;20126;-55
2021/05/09 08:39:39;;;;;;;7.15;3.50;;;21.80;99.90;;;;;;5114593;28;20035;-55
2021/05/09 08:42:07;;;;;;;4.30;3.00;;;21.70;99.90;;;;;;5114553;28;20405;-54
2021/05/09 08:44:34;;;;;;;5.22;3.13;;;21.70;99.90;;;;;;5114495;28;20067;-57
2021/05/09 08:47:02;;;;;;;6.68;3.20;;;22.10;99.90;;;;;;5114408;28;20476;-58
2021/05/09 08:49:29;;;;;;;6.25;3.40;;;22.00;99.90;;;;;;5114465;28;20121;-58
2021/05/09 08:51:55;;;;;;;4.43;3.15;;;22.30;99.90;;;;;;5113976;28;20052;-57
2021/05/09 08:54:21;;;;;;;6.15;2.90;;;22.50;99.90;;;;;;5114074;28;20044;-57
2021/05/09 08:56:47;;;;;;;5.57;3.20;;;22.30;99.50;;;;;;5114043;28;20051;-58
2021/05/09 08:59:13;;;;;;;5.45;2.65;;;22.40;99.90;;;;;;5114577;28;20075;-57
2021/05/09 09:01:41;;;;;;;5.05;2.75;;;22.60;99.90;;;;;;5113880;28;20074;-58
2021/05/09 09:04:07;;;;;;;5.65;2.80;;;22.50;99.70;;;;;;5114378;28;20047;-58
2021/05/09 09:06:42;;;;;;;6.55;2.75;;;22.80;99.30;;;;;;5114333;28;20039;-57
2021/05/09 09:09:24;;;;;;;9.38;2.80;;;22.60;98.30;;;;;;5092718;28;20043;-57
2021/05/09 09:11:57;;;;;;;6.65;2.40;;;22.90;98.20;;;;;;5093710;28;20077;-58
2021/05/09 09:14:27;;;;;;;4.70;2.58;;;22.80;98.10;;;;;;5093638;28;20456;-57
2021/05/09 09:17:12;;;;;;;3.95;2.30;;;22.90;98.60;;;;;;5093371;28;20102;-58
2021/05/09 09:20:06;;;;;;;3.65;2.20;;;22.50;98.20;;;;;;5100840;28;20076;-57
2021/05/09 09:22:52;;;;;;;3.75;2.35;;;22.10;98.40;;;;;;5112564;28;20485;-57
2021/05/09 09:25:20;;;;;;;5.40;2.20;;;21.70;99.00;;;;;;5113062;28;20054;-57
2021/05/09 09:27:48;;;;;;;5.43;2.30;;;21.50;99.90;;;;;;5113585;28;20066;-57
2021/05/09 09:30:15;;;;;;;6.78;2.33;;;21.20;99.90;;;;;;5113448;28;20285;-57
2021/05/09 09:33:01;;;;;;;6.13;1.93;;;21.00;99.90;;;;;;5113325;28;20137;-56
2021/05/09 09:35:29;;;;;;;7.10;2.17;;;20.80;99.90;;;;;;5113347;28;20372;-57
2021/05/09 09:37:55;;;;;;;3.85;2.28;;;20.50;99.90;;;;;;5113234;28;20040;-57
2021/05/09 09:40:21;;;;;;;4.10;2.25;;;20.20;99.90;;;;;;5113229;28;20086;-57
2021/05/09 09:42:48;;;;;;;4.72;2.38;;;20.00;99.90;;;;;;5113146;28;20051;-57
2021/05/09 09:45:34;;;;;;;5.05;2.40;;;19.70;99.90;;;;;;5112976;28;20035;-57
2021/05/09 09:48:02;;;;;;;3.78;2.25;;;19.40;99.90;;;;;;5112416;28;20036;-57
2021/05/09 09:50:50;;;;;;;4.55;2.20;;;19.00;99.90;;;;;;5112940;28;20043;-57
2021/05/09 09:53:34;;;;;;;2.65;2.35;;;18.80;99.90;;;;;;5112986;28;20052;-57
2021/05/09 09:56:12;;;;;;;4.15;2.20;;;18.50;99.90;;;;;;5112752;28;20039;-57
2021/05/09 09:58:56;;;;;;;5.95;3.00;;;18.30;99.90;;;;;;5113086;28;20046;-57
2021/05/09 10:01:27;;;;;;;5.30;2.60;;;18.30;99.90;;;;;;5112779;28;20067;-57
2021/05/09 10:03:58;;;;;;;9.65;2.22;;;18.20;99.90;;;;;;5112770;28;20066;-58
2021/05/09 10:06:25;;;;;;;6.28;2.55;;;18.20;99.90;;;;;;5112785;28;20039;-57
2021/05/09 10:08:51;;;;;;;4.57;2.10;;;18.20;99.90;;;;;;5113183;28;20047;-58
2021/05/09 10:11:18;;;;;;;4.68;2.22;;;18.20;99.90;;;;;;5113097;28;20071;-57
2021/05/09 10:13:46;;;;;;;3.55;1.83;;;18.10;99.90;;;;;;5112578;28;20390;-57
2021/05/09 10:16:13;;;;;;;7.07;2.40;;;18.20;99.90;;;;;;5112572;28;20043;-57
2021/05/09 10:18:43;;;;;;;5.72;2.20;;;18.20;99.90;;;;;;5112508;28;20035;-57
2021/05/09 10:21:10;;;;;;;4.10;2.00;;;18.10;99.90;;;;;;5112597;28;20500;-58
2021/05/09 10:23:56;;;;;;;3.88;2.00;;;18.20;99.90;;;;;;5112669;28;20469;-57
2021/05/09 10:26:30;;;;;;;3.05;2.03;;;18.20;99.90;;;;;;5112346;28;20485;-57
2021/05/09 10:28:56;;;;;;;5.38;2.30;;;18.20;99.90;;;;;;5112239;28;20477;-57
2021/05/09 10:31:28;;;;;;;5.13;2.78;;;18.30;99.90;;;;;;5112771;28;20051;-57
2021/05/09 10:33:54;;;;;;;4.05;2.03;;;18.40;99.90;;;;;;5111894;28;20047;-57
2021/05/09 10:36:20;;;;;;;4.70;2.17;;;18.50;99.90;;;;;;5093639;28;20067;-58
2021/05/09 10:39:07;;;;;;;5.60;2.80;;;18.70;99.90;;;;;;5112368;28;20128;-57
2021/05/09 10:41:34;;;;;;;7.75;2.17;;;19.10;99.90;;;;;;5112302;28;20032;-57
2021/05/09 10:44:21;;;;;;;5.65;2.60;;;19.50;99.90;;;;;;5112427;28;20046;-57
2021/05/09 10:47:04;;;;;;;6.93;2.35;;;19.70;99.90;;;;;;5094194;28;20044;-57
2021/05/09 10:49:29;;;;;;;6.97;2.47;;;19.80;99.90;;;;;;5111993;28;20470;-57
2021/05/09 10:51:55;;;;;;;3.63;2.40;;;19.90;99.90;;;;;;5105822;28;20048;-57
2021/05/09 10:54:24;;;;;;;5.72;2.45;;;20.30;99.90;;;;;;5091788;28;20040;-58
2021/05/09 10:56:52;;;;;;;4.40;2.33;;;20.50;99.90;;;;;;5091666;28;20036;-57
2021/05/09 10:59:18;;;;;;;4.45;2.47;;;20.90;99.90;;;;;;5091572;28;20098;-57
2021/05/09 11:01:44;;;;;;;4.68;1.90;;;20.90;99.90;;;;;;5091840;28;20040;-57
2021/05/09 11:04:12;;;;;;;7.28;1.90;;;21.10;99.90;;;;;;5091627;28;20090;-57
2021/05/09 11:06:42;;;;;;;4.03;1.90;;;21.30;99.90;;;;;;5091723;28;20074;-56
2021/05/09 11:09:11;;;;;;;4.30;1.60;;;21.50;99.90;;;;;;5091586;28;20547;-57
2021/05/09 11:11:37;;;;;;;2.33;1.58;;;21.80;99.90;;;;;;5091695;28;20074;-57
2021/05/09 11:14:10;;;;;;;2.42;1.40;;;21.80;99.90;;;;;;5091554;28;20505;-58
2021/05/09 11:16:57;;;;;;;2.55;1.40;;;21.90;99.90;;;;;;5091555;28;20079;-57
2021/05/09 11:19:32;;;;;;;2.42;1.55;;;22.00;99.90;;;;;;5091781;28;20059;-57
2021/05/09 11:21:58;;;;;;;4.57;1.20;;;22.10;99.90;;;;;;5091693;28;20090;-58
2021/05/09 11:24:32;;;;;;;4.65;1.48;;;22.20;99.80;;;;;;5091743;28;20076;-57
2021/05/09 11:27:09;;;;;;;2.63;1.10;;;22.20;99.00;;;;;;5091477;28;20428;-57
2021/05/09 11:29:39;;;;;;;2.05;1.05;;;22.60;98.90;;;;;;5091419;28;20063;-57
2021/05/09 11:32:16;;;;;;;3.63;1.55;;;23.30;98.90;;;;;;5091497;28;20490;-57
2021/05/09 11:34:57;;;;;;;2.63;1.25;;;23.30;99.00;;;;;;5091197;28;20497;-57
2021/05/09 11:37:31;;;;;;;2.60;1.40;;;23.60;99.10;;;;;;5091439;28;20044;-57
2021/05/09 11:40:00;;;;;;;2.13;1.27;;;24.10;99.30;;;;;;5091313;28;20044;-57
2021/05/09 11:42:28;;;;;;;1.75;1.42;;;24.40;97.90;;;;;;5091489;28;20515;-57
2021/05/09 11:44:57;;;;;;;;;;;24.30;98.50;;;;;;5091813;28;20394;-57
2021/05/09 11:47:31;;;;;;;3.45;1.55;;;24.60;96.10;;;;;;5094981;28;19916;-57
2021/05/09 11:50:03;;;;;;;3.72;1.20;;;24.70;96.20;;;;;;5095237;28;20503;-57
2021/05/09 11:52:30;;;;;;;2.13;1.20;;;24.90;96.20;;;;;;5094738;28;20504;-57
2021/05/09 11:55:01;;;;;;;2.45;1.20;;;25.40;97.00;;;;;;5094848;28;20104;-57
2021/05/09 11:57:29;;;;;;;1.95;1.15;;;25.30;94.40;;;;;;5076956;28;20048;-58
2021/05/09 12:00:05;;;;;;;2.05;1.05;;;25.70;95.00;;;;;;5094563;28;20071;-57
2021/05/09 12:02:34;;;;;;;2.22;0.80;;;25.40;94.20;;;;;;5094810;28;20115;-57
2021/05/09 12:05:01;;;;;;;4.50;1.45;;;25.70;94.40;;;;;;5094854;28;20512;-57
2021/05/09 12:07:35;;;;;;;2.13;1.33;;;25.70;93.40;;;;;;5094603;28;20055;-57
2021/05/09 12:10:22;;;;;;;2.13;1.00;;;25.70;91.70;;;;;;5094630;28;20036;-57
2021/05/09 12:12:48;;;;;;;2.03;1.10;;;25.30;91.90;;;;;;5094377;28;20549;-57
2021/05/09 12:15:18;;;;;;;2.83;1.08;;;24.90;91.70;;;;;;5094531;28;20154;-57
2021/05/09 12:17:55;;;;;;;3.38;1.33;;;24.90;91.30;;;;;;5094342;28;20495;-57
2021/05/09 12:20:37;;;;;;;2.88;1.20;;;24.70;92.50;;;;;;5094492;28;20040;-57
2021/05/09 12:23:08;;;;;;;1.83;1.00;;;24.70;91.80;;;;;;5094218;28;20044;-57
2021/05/09 12:25:43;;;;;;;2.50;1.00;;;24.70;91.90;;;;;;5094088;28;20075;-54
2021/05/09 12:28:16;;;;;;;4.25;1.08;;;24.90;91.00;;;;;;5094160;28;20473;-55
2021/05/09 12:30:44;;;;;;;1.48;0.80;;;25.20;90.10;;;;;;5094276;28;20043;-54
2021/05/09 12:33:09;;;;;;;6.20;1.30;;;25.10;90.50;;;;;;5094268;28;20039;-55
2021/05/09 12:35:46;;;;;;;0.80;0.70;;;25.10;90.10;;;;;;5093971;28;20481;-55
2021/05/09 12:38:21;;;;;;;1.55;0.90;;;24.70;90.50;;;;;;5094020;28;20032;-55
2021/05/09 12:40:47;;;;;;;2.70;1.20;;;24.50;90.40;;;;;;5093985;28;20039;-54
2021/05/09 12:43:12;;;;;;;1.63;0.90;;;24.30;91.40;;;;;;5093988;28;20040;-55
2021/05/09 12:45:40;;;;;;;2.25;1.42;;;24.30;92.10;;;;;;5093915;28;20048;-55
2021/05/09 12:48:10;;;;;;;2.20;0.75;;;24.20;92.20;;;;;;5093748;28;20119;-54
2021/05/09 12:50:56;;;;;;;2.33;0.90;;;24.10;92.90;;;;;;5093689;28;20105;-55